Portada
METAR-TAF:

METAR-TAF

Aeroports :

Sukkur, Pakistan

latitud: 27-43-19N, longitud: 068-47-31E, altitud: 60 m

Observació

L'informe es va fer fa 50 minuts, a les 19:00 UTC
Vent calma
Temperatura 11°C
Humitat 76%
Pressió 1016 hPa
Visibilitat: 3000 m
calitja

METAR: OPSK 261900Z 00000KT 3000 HZ NSC 11/07 Q1016 NOSIG

Hora: 00:50 (19:50 UTC)

Pronòstic

L'informe es va fer fa 4 hores i 20 minuts, a les 15:30 UTC
Pronòstic vàlid del 26 a les 18 UTC al 27 a les 18 UTC
Vent 3 kt amb direcció variable
Visibilitat: 2000 m
fum
Temporalment
l' 27 a les 00 UTC al 27 a les 05 UTC
Vent kt del Nord
Visibilitat: 1000 m
Núvols disperses a una alçada de 3000 ft
boirina
Evolucionant progressivament
l' 27 a les 06 UTC al 27 a les 08 UTC
Vent 7 kt del Sud-Est
Visibilitat: 4000 m
calitja

TAF: OPSK 261530Z 2618/2718 VRB03KT 2000 FU NSC TEMPO 2700/2705 00000KT 1000 BR SCT030 BECMG 2706/2708 14007KT 4000 HZ NSC

Observacions i pronòstics meteorològics de més de 4000 aeroports (METAR i TAF).

Les estacions disponibles són els punts grocs i vermells al mapa.

Posi el ratolí al punt desitjat per veure el nom de l'estació.

Feu clic per veure les observacions i els pronòstics meteorològics.

Per canviar el mapa: feu clic els botons verds amb una creu de color negre per apropar; al botó verd amb un guió per allunyar la imatge; o en les fletxes verdes per a mapes adjacents.


METAR-TAF: